createdAt,value
2017-06-22T00:01:11.641Z,3.70
2017-06-22T00:03:39.085Z,3.70
2017-06-22T00:06:06.559Z,3.12
2017-06-22T00:08:34.011Z,3.60
2017-06-22T00:11:01.446Z,4.00
2017-06-22T00:13:28.947Z,3.80
2017-06-22T00:15:56.468Z,3.80
2017-06-22T00:18:23.930Z,3.47
2017-06-22T00:20:51.374Z,3.60
2017-06-22T00:23:18.862Z,3.90
2017-06-22T00:25:46.406Z,3.70
2017-06-22T00:28:13.872Z,3.97
2017-06-22T00:30:41.314Z,3.58
2017-06-22T00:33:08.747Z,3.40
2017-06-22T00:35:36.174Z,3.90
2017-06-22T00:38:03.636Z,3.87
2017-06-22T00:40:31.870Z,4.30
2017-06-22T00:42:59.379Z,3.72
2017-06-22T00:45:26.906Z,4.10
2017-06-22T00:47:55.103Z,3.90
2017-06-22T00:50:22.534Z,3.50
2017-06-22T00:52:50.774Z,3.50
2017-06-22T00:55:18.222Z,4.00
2017-06-22T00:57:45.658Z,3.65
2017-06-22T01:00:13.099Z,3.80
2017-06-22T01:02:40.532Z,3.40
2017-06-22T01:05:08.753Z,3.70
2017-06-22T01:07:36.190Z,3.70
2017-06-22T01:10:03.619Z,3.83
2017-06-22T01:12:31.890Z,4.12
2017-06-22T01:14:59.346Z,3.80
2017-06-22T01:17:26.866Z,3.60
2017-06-22T01:19:54.836Z,4.10
2017-06-22T01:22:22.271Z,3.90
2017-06-22T01:24:49.751Z,2.93
2017-06-22T01:27:17.207Z,3.00
2017-06-22T01:29:44.676Z,3.30
2017-06-22T01:32:12.244Z,2.90
2017-06-22T01:34:39.678Z,2.95
2017-06-22T01:37:07.147Z,3.22
2017-06-22T01:39:34.610Z,3.20
2017-06-22T01:42:02.050Z,3.55
2017-06-22T01:44:29.507Z,3.83
2017-06-22T01:46:56.936Z,3.20
2017-06-22T01:49:24.382Z,3.37
2017-06-22T01:51:51.817Z,3.53
2017-06-22T01:54:20.027Z,4.30
2017-06-22T01:56:47.462Z,3.70
2017-06-22T01:59:14.900Z,4.50
2017-06-22T02:01:43.094Z,4.57
2017-06-22T02:04:10.535Z,4.32
2017-06-22T02:06:38.100Z,4.53
2017-06-22T02:09:05.533Z,5.32
2017-06-22T02:11:33.759Z,4.80
2017-06-22T02:14:01.211Z,5.75
2017-06-22T02:16:28.662Z,5.95
2017-06-22T02:18:56.121Z,6.47
2017-06-22T02:21:23.590Z,6.15
2017-06-22T02:24:00.076Z,5.75
2017-06-22T02:26:27.545Z,6.00
2017-06-22T02:28:55.073Z,5.60
2017-06-22T02:31:22.547Z,6.43
2017-06-22T02:33:49.990Z,5.70
2017-06-22T02:36:17.446Z,5.37
2017-06-22T02:38:44.884Z,5.40
2017-06-22T02:41:12.373Z,5.07
2017-06-22T02:43:39.803Z,5.00
2017-06-22T02:46:07.271Z,4.20
2017-06-22T02:48:34.836Z,4.15
2017-06-22T02:51:02.270Z,4.00
2017-06-22T02:53:29.746Z,4.40
2017-06-22T02:55:57.265Z,4.50
2017-06-22T02:58:24.724Z,4.62
2017-06-22T03:00:53.321Z,4.90
2017-06-22T03:03:20.798Z,4.60
2017-06-22T03:05:48.283Z,4.32
2017-06-22T03:08:15.703Z,4.60
2017-06-22T03:10:43.162Z,3.95
2017-06-22T03:13:10.651Z,3.90
2017-06-22T03:15:38.533Z,3.90
2017-06-22T03:18:05.954Z,7.50
2017-06-22T03:20:33.395Z,4.32
2017-06-22T03:23:01.688Z,4.95
2017-06-22T03:25:29.219Z,4.00
2017-06-22T03:27:56.774Z,4.25
2017-06-22T03:30:24.268Z,3.53
2017-06-22T03:32:51.706Z,3.70
2017-06-22T03:35:19.263Z,3.90
2017-06-22T03:37:46.718Z,4.10
2017-06-22T03:40:14.181Z,4.20
2017-06-22T03:42:41.627Z,4.30
2017-06-22T03:45:09.092Z,4.00
2017-06-22T03:47:36.534Z,5.07
2017-06-22T03:50:03.974Z,4.80
2017-06-22T03:52:31.454Z,5.00
2017-06-22T03:54:58.903Z,4.50
2017-06-22T03:57:26.369Z,5.68
2017-06-22T03:59:53.861Z,4.60
2017-06-22T04:02:21.379Z,4.57
2017-06-22T04:04:48.917Z,4.20
2017-06-22T04:07:16.387Z,4.05
2017-06-22T04:09:43.859Z,4.22
2017-06-22T04:12:11.316Z,4.10
2017-06-22T04:14:38.751Z,4.22
2017-06-22T04:17:06.225Z,4.50
2017-06-22T04:19:33.672Z,4.07
2017-06-22T04:22:01.131Z,4.20
2017-06-22T04:24:28.618Z,6.12
2017-06-22T04:26:56.166Z,4.60
2017-06-22T04:29:23.626Z,4.68
2017-06-22T04:31:51.063Z,4.70
2017-06-22T04:34:18.538Z,4.80
2017-06-22T04:36:45.996Z,5.70
2017-06-22T04:39:13.526Z,5.30
2017-06-22T04:41:40.959Z,4.90
2017-06-22T04:44:08.446Z,5.53
2017-06-22T04:46:35.874Z,4.75
2017-06-22T04:49:03.320Z,4.95
2017-06-22T04:51:30.779Z,5.28
2017-06-22T04:53:58.295Z,5.22
2017-06-22T04:56:25.847Z,5.83
2017-06-22T04:58:53.312Z,5.60
2017-06-22T05:01:20.874Z,5.20
2017-06-22T05:03:48.304Z,5.10
2017-06-22T05:06:15.758Z,5.37
2017-06-22T05:08:43.213Z,5.60
2017-06-22T05:11:10.678Z,16.98
2017-06-22T05:13:38.107Z,5.25
2017-06-22T05:16:05.542Z,4.70
2017-06-22T05:18:33.165Z,5.18
2017-06-22T05:21:00.699Z,5.37
2017-06-22T05:23:28.130Z,5.20
2017-06-22T05:25:55.642Z,4.90
2017-06-22T05:28:23.067Z,5.20
2017-06-22T05:30:50.523Z,5.50
2017-06-22T05:33:18.056Z,6.00
2017-06-22T05:35:45.555Z,6.28
2017-06-22T05:38:13.104Z,6.00
2017-06-22T05:40:40.559Z,5.25
2017-06-22T05:43:08.114Z,6.50
2017-06-22T05:45:35.538Z,6.45
2017-06-22T05:48:03.018Z,6.70
2017-06-22T05:50:30.509Z,5.70
2017-06-22T05:52:57.934Z,6.22
2017-06-22T05:55:25.394Z,6.75
2017-06-22T05:57:52.858Z,6.20
2017-06-22T06:00:20.303Z,6.40
2017-06-22T06:02:47.760Z,7.22
2017-06-22T06:05:15.322Z,6.00
2017-06-22T06:07:42.757Z,6.35
2017-06-22T06:10:10.470Z,6.25
2017-06-22T06:12:37.882Z,5.90
2017-06-22T06:15:06.298Z,5.80
2017-06-22T06:17:33.721Z,6.18
2017-06-22T06:20:01.970Z,6.70
2017-06-22T06:22:29.402Z,7.15
2017-06-22T06:24:56.941Z,6.80
2017-06-22T06:27:24.434Z,6.50
2017-06-22T06:29:51.895Z,6.22
2017-06-22T06:32:19.340Z,4.75
2017-06-22T06:34:46.823Z,5.12
2017-06-22T06:37:15.041Z,5.22
2017-06-22T06:39:42.526Z,5.40
2017-06-22T06:42:10.466Z,5.40
2017-06-22T06:44:37.905Z,5.40
2017-06-22T06:47:05.406Z,6.62
2017-06-22T06:49:32.940Z,5.87
2017-06-22T06:52:00.598Z,5.13
2017-06-22T06:54:28.075Z,5.40
2017-06-22T06:56:55.519Z,5.80
2017-06-22T06:59:22.986Z,6.43
2017-06-22T07:01:50.526Z,7.18
2017-06-22T07:04:18.001Z,6.00
2017-06-22T07:06:45.544Z,6.30
2017-06-22T07:09:13.099Z,6.30
2017-06-22T07:11:40.567Z,6.20
2017-06-22T07:14:08.018Z,5.73
2017-06-22T07:16:35.494Z,7.32
2017-06-22T07:19:02.949Z,6.15
2017-06-22T07:21:30.500Z,6.10
2017-06-22T07:23:57.978Z,5.80
2017-06-22T07:26:25.410Z,7.20
2017-06-22T07:28:52.883Z,6.40
2017-06-22T07:31:20.450Z,5.12
2017-06-22T07:33:47.995Z,5.87
2017-06-22T07:36:15.448Z,6.20
2017-06-22T07:38:42.912Z,5.20
2017-06-22T07:41:10.355Z,5.75
2017-06-22T07:43:37.823Z,6.53
2017-06-22T07:46:05.287Z,6.50
2017-06-22T07:48:32.730Z,5.50
2017-06-22T07:51:00.361Z,5.55
2017-06-22T07:53:27.907Z,5.25
2017-06-22T07:55:55.356Z,5.55
2017-06-22T07:58:22.869Z,6.05
2017-06-22T08:00:50.415Z,4.93
2017-06-22T08:03:17.911Z,4.93
2017-06-22T08:05:46.103Z,5.30
2017-06-22T08:08:13.648Z,5.50
2017-06-22T08:10:41.961Z,5.80
2017-06-22T08:13:09.519Z,5.62
2017-06-22T08:15:37.003Z,5.37
2017-06-22T08:18:04.554Z,6.10
2017-06-22T08:20:31.986Z,6.00
2017-06-22T08:22:59.734Z,6.82
2017-06-22T08:25:27.944Z,5.87
2017-06-22T08:27:55.485Z,6.00
2017-06-22T08:30:22.902Z,5.40
2017-06-22T08:32:51.112Z,5.70
2017-06-22T08:35:18.559Z,6.80
2017-06-22T08:37:45.990Z,5.85
2017-06-22T08:40:14.231Z,6.43
2017-06-22T08:42:41.694Z,5.07
2017-06-22T08:45:09.141Z,7.55
2017-06-22T08:47:36.567Z,6.32
2017-06-22T08:50:04.043Z,6.50
2017-06-22T08:52:31.503Z,6.23
2017-06-22T08:54:58.954Z,5.72
2017-06-22T08:57:26.507Z,5.97
2017-06-22T08:59:53.943Z,6.65
2017-06-22T09:02:21.426Z,6.50
2017-06-22T09:04:48.865Z,6.20
2017-06-22T09:07:16.331Z,6.30
2017-06-22T09:09:43.847Z,6.60
2017-06-22T09:12:12.302Z,6.50
2017-06-22T09:14:39.887Z,6.37
2017-06-22T09:17:07.391Z,6.07
2017-06-22T09:19:34.933Z,6.75
2017-06-22T09:22:02.495Z,6.70
2017-06-22T09:24:29.918Z,6.40
2017-06-22T09:26:57.350Z,6.43
2017-06-22T09:29:24.912Z,6.75
2017-06-22T09:31:52.420Z,5.93
2017-06-22T09:34:19.901Z,6.37
2017-06-22T09:36:47.355Z,5.90
2017-06-22T09:39:14.938Z,5.93
2017-06-22T09:41:42.374Z,10.07
2017-06-22T09:44:09.862Z,11.70
2017-06-22T09:46:37.301Z,16.27
2017-06-22T09:49:04.846Z,19.03
2017-06-22T09:51:32.398Z,20.30
2017-06-22T09:53:59.909Z,22.08
2017-06-22T09:56:28.126Z,20.37
2017-06-22T09:58:55.583Z,20.15
2017-06-22T10:01:23.080Z,21.15
2017-06-22T10:03:51.319Z,21.17
2017-06-22T10:06:18.778Z,21.30
2017-06-22T10:08:46.244Z,23.57
2017-06-22T10:11:13.803Z,22.50
2017-06-22T10:13:41.355Z,26.30
2017-06-22T10:16:08.814Z,20.83
2017-06-22T10:18:36.358Z,23.33
2017-06-22T10:21:03.831Z,22.13
2017-06-22T10:23:31.399Z,25.33
2017-06-22T10:25:58.847Z,24.20
2017-06-22T10:28:26.375Z,23.23
2017-06-22T10:30:53.851Z,24.90
2017-06-22T10:33:21.486Z,26.53
2017-06-22T10:35:49.045Z,24.87
2017-06-22T10:38:16.539Z,22.27
2017-06-22T10:40:44.024Z,23.20
2017-06-22T10:43:12.226Z,21.85
2017-06-22T10:45:39.978Z,19.70
2017-06-22T10:48:07.502Z,19.10
2017-06-22T10:50:34.947Z,17.92
2017-06-22T10:53:02.480Z,18.08
2017-06-22T10:55:30.011Z,18.40
2017-06-22T10:57:57.508Z,16.92
2017-06-22T11:00:24.948Z,16.15
2017-06-22T11:02:52.497Z,16.62
2017-06-22T11:05:19.974Z,17.30
2017-06-22T11:07:47.459Z,16.83
2017-06-22T11:10:15.173Z,16.05
2017-06-22T11:12:42.628Z,16.50
2017-06-22T11:15:10.138Z,16.40
2017-06-22T11:17:38.409Z,13.73
2017-06-22T11:20:05.843Z,14.75
2017-06-22T11:22:33.292Z,15.80
2017-06-22T11:25:00.753Z,16.20
2017-06-22T11:27:28.182Z,15.10
2017-06-22T11:29:55.627Z,14.85
2017-06-22T11:32:23.195Z,17.00
2017-06-22T11:34:50.644Z,15.02
2017-06-22T11:37:18.155Z,14.40
2017-06-22T11:39:45.599Z,15.30
2017-06-22T11:42:13.231Z,16.80
2017-06-22T11:44:40.731Z,17.02
2017-06-22T11:47:08.287Z,17.40
2017-06-22T11:49:35.751Z,17.20
2017-06-22T11:52:03.321Z,16.40
2017-06-22T11:54:30.746Z,14.80
2017-06-22T11:56:58.190Z,15.90
2017-06-22T11:59:25.631Z,16.83
2017-06-22T12:01:53.084Z,16.00
2017-06-22T12:04:20.591Z,16.17
2017-06-22T12:06:48.201Z,15.75
2017-06-22T12:09:15.634Z,15.00
2017-06-22T12:11:43.082Z,15.30
2017-06-22T12:14:10.602Z,14.70
2017-06-22T12:16:38.128Z,13.35
2017-06-22T12:19:05.614Z,16.08
2017-06-22T12:21:33.349Z,15.38
2017-06-22T12:24:00.776Z,14.40
2017-06-22T12:26:28.363Z,12.50
2017-06-22T12:28:55.839Z,13.00
2017-06-22T12:31:23.303Z,13.27
2017-06-22T12:33:50.723Z,11.50
2017-06-22T12:36:18.289Z,12.87
2017-06-22T12:38:45.718Z,12.15
2017-06-22T12:41:13.962Z,12.50
2017-06-22T12:43:41.505Z,11.30
2017-06-22T12:46:08.957Z,11.43
2017-06-22T12:48:36.452Z,10.57
2017-06-22T12:51:03.986Z,8.40
2017-06-22T12:53:31.527Z,9.10
2017-06-22T12:55:58.981Z,8.07
2017-06-22T12:58:26.440Z,8.00
2017-06-22T13:00:53.886Z,7.90
2017-06-22T13:03:21.362Z,7.55
2017-06-22T13:05:48.819Z,7.93
2017-06-22T13:08:16.402Z,8.50
2017-06-22T13:10:44.696Z,7.28
2017-06-22T13:13:13.102Z,8.65
2017-06-22T13:15:40.604Z,7.40
2017-06-22T13:18:08.080Z,6.93
2017-06-22T13:20:36.310Z,8.30
2017-06-22T13:23:04.062Z,7.05
2017-06-22T13:25:31.715Z,7.70
2017-06-22T13:27:59.286Z,7.43
2017-06-22T13:30:26.704Z,7.50
2017-06-22T13:32:54.197Z,7.50
2017-06-22T13:35:21.714Z,8.07
2017-06-22T13:37:49.301Z,6.60
2017-06-22T13:40:16.860Z,8.07
2017-06-22T13:42:44.304Z,7.72
2017-06-22T13:45:11.791Z,7.43
2017-06-22T13:47:39.332Z,7.97
2017-06-22T13:50:06.783Z,7.93
2017-06-22T13:52:34.232Z,7.80
2017-06-22T13:55:01.691Z,7.90
2017-06-22T13:57:29.203Z,7.60
2017-06-22T13:59:56.639Z,7.60
2017-06-22T14:02:24.080Z,7.30
2017-06-22T14:04:51.558Z,8.40
2017-06-22T14:07:19.089Z,11.20
2017-06-22T14:09:46.522Z,8.30
2017-06-22T14:12:13.954Z,8.20
2017-06-22T14:14:42.210Z,8.60
2017-06-22T14:17:09.771Z,7.93
2017-06-22T14:19:37.286Z,7.53
2017-06-22T14:22:04.775Z,8.90
2017-06-22T14:24:32.218Z,8.43
2017-06-22T14:26:59.758Z,9.10
2017-06-22T14:29:27.246Z,8.32
2017-06-22T14:31:54.830Z,7.68
2017-06-22T14:34:23.090Z,8.25
2017-06-22T14:36:50.542Z,6.85
2017-06-22T14:39:18.015Z,7.68
2017-06-22T14:41:45.591Z,8.45
2017-06-22T14:44:13.899Z,7.25
2017-06-22T14:46:41.388Z,8.40
2017-06-22T14:49:08.912Z,8.10
2017-06-22T14:51:36.469Z,9.07
2017-06-22T14:54:03.926Z,8.43
2017-06-22T14:56:31.346Z,9.40
2017-06-22T14:58:59.605Z,8.87
2017-06-22T15:01:27.031Z,8.90
2017-06-22T15:03:54.519Z,8.48
2017-06-22T15:06:22.043Z,8.20
2017-06-22T15:08:49.479Z,7.28
2017-06-22T15:11:16.919Z,8.10
2017-06-22T15:13:44.451Z,7.87
2017-06-22T15:16:12.672Z,7.90
2017-06-22T15:18:40.159Z,7.60
2017-06-22T15:21:07.635Z,7.80
2017-06-22T15:23:35.083Z,8.70
2017-06-22T15:26:02.553Z,7.20
2017-06-22T15:28:30.259Z,8.35
2017-06-22T15:30:57.698Z,7.62
2017-06-22T15:33:25.158Z,8.60
2017-06-22T15:35:52.627Z,7.85
2017-06-22T15:38:20.052Z,8.35
2017-06-22T15:40:48.246Z,9.27
2017-06-22T15:43:15.819Z,8.50
2017-06-22T15:45:43.263Z,7.53
2017-06-22T15:48:10.715Z,8.27
2017-06-22T15:50:38.310Z,8.30
2017-06-22T15:53:05.766Z,8.70
2017-06-22T15:55:33.199Z,8.70
2017-06-22T15:58:00.703Z,8.57
2017-06-22T16:00:28.147Z,8.50
2017-06-22T16:02:55.580Z,8.63
2017-06-22T16:05:23.243Z,9.93
2017-06-22T16:07:50.686Z,10.57
2017-06-22T16:10:18.166Z,9.25
2017-06-22T16:12:45.598Z,10.77
2017-06-22T16:15:13.080Z,10.10
2017-06-22T16:17:40.611Z,9.57
2017-06-22T16:20:08.131Z,9.77
2017-06-22T16:22:36.362Z,9.60
2017-06-22T16:25:03.798Z,10.15
2017-06-22T16:27:31.260Z,9.67
2017-06-22T16:29:58.766Z,11.50
2017-06-22T16:32:26.235Z,8.65
2017-06-22T16:34:53.662Z,8.93
2017-06-22T16:37:21.184Z,9.60
2017-06-22T16:39:48.741Z,10.07
2017-06-22T16:42:16.227Z,9.90
2017-06-22T16:44:43.667Z,9.15
2017-06-22T16:47:11.108Z,9.63
2017-06-22T16:49:38.589Z,11.63
2017-06-22T16:52:06.071Z,11.80
2017-06-22T16:54:33.502Z,12.07
2017-06-22T16:57:01.083Z,11.02
2017-06-22T16:59:28.553Z,12.70
2017-06-22T17:01:55.995Z,10.73
2017-06-22T17:04:23.476Z,10.10
2017-06-22T17:06:51.672Z,12.82
2017-06-22T17:09:19.114Z,10.38
2017-06-22T17:11:46.648Z,13.00
2017-06-22T17:14:14.895Z,14.70
2017-06-22T17:16:42.530Z,12.40
2017-06-22T17:19:10.016Z,11.12
2017-06-22T17:21:37.463Z,14.00
2017-06-22T17:24:04.946Z,15.27
2017-06-22T17:26:32.462Z,18.05
2017-06-22T17:29:00.024Z,18.08
2017-06-22T17:31:27.462Z,20.80
2017-06-22T17:33:54.950Z,20.73
2017-06-22T17:36:22.418Z,25.12
2017-06-22T17:38:49.948Z,23.05
2017-06-22T17:41:17.426Z,23.40
2017-06-22T17:43:45.168Z,22.08
2017-06-22T17:46:12.657Z,24.20
2017-06-22T17:48:40.184Z,24.83
2017-06-22T17:51:07.668Z,28.70
2017-06-22T17:53:35.128Z,23.25
2017-06-22T17:56:02.653Z,21.60
2017-06-22T17:58:30.143Z,23.38
2017-06-22T18:00:57.775Z,22.10
2017-06-22T18:03:25.250Z,18.15
2017-06-22T18:05:52.739Z,15.60
2017-06-22T18:08:20.313Z,16.12
2017-06-22T18:10:47.761Z,11.60
2017-06-22T18:13:15.242Z,8.65
2017-06-22T18:15:42.699Z,8.63
2017-06-22T18:18:10.235Z,6.70
2017-06-22T18:20:37.692Z,7.18
2017-06-22T18:23:05.147Z,6.40
2017-06-22T18:25:32.709Z,6.62
2017-06-22T18:28:00.125Z,5.85
2017-06-22T18:30:28.438Z,6.20
2017-06-22T18:32:55.858Z,6.37
2017-06-22T18:35:24.122Z,7.33
2017-06-22T18:37:52.370Z,8.60
2017-06-22T18:40:19.823Z,8.23
2017-06-22T18:42:47.284Z,10.73
2017-06-22T18:45:14.739Z,11.00
2017-06-22T18:47:42.202Z,9.52
2017-06-22T18:50:09.770Z,8.90
2017-06-22T18:52:37.339Z,10.00
2017-06-22T18:55:04.775Z,10.20
2017-06-22T18:57:32.711Z,11.45
2017-06-22T19:00:00.193Z,12.83
2017-06-22T19:02:27.659Z,13.65
2017-06-22T19:04:55.121Z,14.93
2017-06-22T19:07:22.589Z,17.20
2017-06-22T19:09:50.151Z,14.27
2017-06-22T19:12:18.401Z,15.32
2017-06-22T19:14:45.852Z,14.90
2017-06-22T19:17:13.286Z,13.73
2017-06-22T19:19:40.778Z,12.30
2017-06-22T19:22:08.229Z,9.43
2017-06-22T19:24:35.667Z,10.27
2017-06-22T19:27:03.122Z,9.00
2017-06-22T19:29:30.575Z,8.93
2017-06-22T19:31:58.008Z,11.63
2017-06-22T19:34:25.531Z,11.40
2017-06-22T19:36:53.731Z,10.98
2017-06-22T19:39:21.230Z,10.57
2017-06-22T19:41:48.674Z,10.70
2017-06-22T19:44:16.171Z,11.38
2017-06-22T19:46:43.708Z,11.55
2017-06-22T19:49:11.179Z,12.30
2017-06-22T19:51:38.625Z,13.62
2017-06-22T19:54:06.102Z,15.43
2017-06-22T19:56:33.640Z,37.50
2017-06-22T19:59:01.187Z,27.45
2017-06-22T20:01:28.739Z,24.20
2017-06-22T20:03:56.194Z,18.90
2017-06-22T20:06:23.657Z,22.95
2017-06-22T20:08:51.143Z,25.35
2017-06-22T20:11:19.389Z,18.23
2017-06-22T20:13:46.844Z,13.30
2017-06-22T20:16:14.319Z,16.33
2017-06-22T20:18:41.770Z,15.65
2017-06-22T20:21:09.342Z,14.35
2017-06-22T20:23:36.890Z,11.70
2017-06-22T20:26:04.329Z,11.03
2017-06-22T20:28:31.812Z,10.60
2017-06-22T20:30:59.364Z,10.00
2017-06-22T20:33:26.910Z,10.50
2017-06-22T20:35:54.366Z,10.60
2017-06-22T20:38:21.846Z,10.83
2017-06-22T20:40:49.298Z,11.00
2017-06-22T20:43:16.766Z,10.47
2017-06-22T20:45:45.084Z,11.05
2017-06-22T20:48:12.527Z,10.10
2017-06-22T20:50:39.997Z,10.02
2017-06-22T20:53:07.513Z,10.98
2017-06-22T20:55:35.790Z,10.93
2017-06-22T20:58:04.022Z,12.27
2017-06-22T21:00:31.578Z,12.98
2017-06-22T21:02:59.014Z,15.20
2017-06-22T21:05:26.495Z,14.60
2017-06-22T21:07:54.142Z,16.33
2017-06-22T21:10:21.609Z,17.08
2017-06-22T21:12:49.044Z,17.90
2017-06-22T21:15:16.563Z,19.33
2017-06-22T21:17:44.810Z,18.95
2017-06-22T21:20:12.275Z,20.50
2017-06-22T21:22:39.724Z,21.50
2017-06-22T21:25:07.176Z,23.48
2017-06-22T21:27:34.674Z,22.58
2017-06-22T21:30:03.223Z,24.83
2017-06-22T21:32:30.679Z,24.63
2017-06-22T21:34:58.272Z,25.48
2017-06-22T21:37:26.498Z,27.37
2017-06-22T21:39:54.035Z,27.77
2017-06-22T21:42:21.478Z,29.20
2017-06-22T21:44:49.002Z,30.83
2017-06-22T21:47:16.831Z,31.20
2017-06-22T21:49:44.322Z,36.05
2017-06-22T21:52:12.645Z,41.40
2017-06-22T21:54:40.155Z,47.50
2017-06-22T21:57:07.586Z,49.75
2017-06-22T21:59:35.050Z,56.72
2017-06-22T22:02:02.515Z,59.60
2017-06-22T22:04:30.155Z,55.55
2017-06-22T22:06:57.622Z,59.30
2017-06-22T22:09:25.058Z,52.90
2017-06-22T22:11:52.535Z,44.30
2017-06-22T22:14:19.976Z,46.55
2017-06-22T22:16:47.444Z,43.80
2017-06-22T22:19:14.896Z,40.00
2017-06-22T22:21:42.387Z,42.00
2017-06-22T22:24:10.603Z,38.78
2017-06-22T22:26:38.094Z,37.25
2017-06-22T22:29:05.670Z,38.38
2017-06-22T22:31:33.924Z,40.40
2017-06-22T22:34:01.374Z,42.07
2017-06-22T22:36:28.908Z,42.55
2017-06-22T22:38:56.399Z,45.03
2017-06-22T22:41:23.848Z,47.67
2017-06-22T22:43:51.330Z,48.22
2017-06-22T22:46:18.816Z,48.95
2017-06-22T22:48:47.048Z,51.90
2017-06-22T22:51:14.592Z,53.10
2017-06-22T22:53:42.054Z,53.55
2017-06-22T22:56:09.503Z,55.93
2017-06-22T22:58:36.959Z,57.70
2017-06-22T23:01:04.403Z,58.17
2017-06-22T23:03:31.895Z,56.97
2017-06-22T23:05:59.430Z,56.72
2017-06-22T23:08:26.994Z,57.40
2017-06-22T23:10:54.428Z,56.25
2017-06-22T23:13:21.879Z,54.30
2017-06-22T23:15:49.359Z,53.40
2017-06-22T23:18:16.803Z,51.92
2017-06-22T23:20:44.244Z,48.70
2017-06-22T23:23:11.727Z,50.38
2017-06-22T23:25:39.187Z,49.85
2017-06-22T23:28:06.632Z,50.75
2017-06-22T23:30:34.084Z,50.22
2017-06-22T23:33:01.547Z,50.10
2017-06-22T23:35:29.003Z,48.55
2017-06-22T23:37:56.434Z,46.80
2017-06-22T23:40:23.915Z,47.53
2017-06-22T23:42:51.396Z,44.65
2017-06-22T23:45:18.851Z,43.20
2017-06-22T23:47:46.294Z,45.05
2017-06-22T23:50:13.754Z,43.20
2017-06-22T23:52:41.305Z,42.58
2017-06-22T23:55:08.870Z,43.85
2017-06-22T23:57:36.415Z,44.75
